createdAt,value
2017-09-15T00:01:16.732Z,14.21
2017-09-15T00:03:49.590Z,14.21
2017-09-15T00:06:26.321Z,14.20
2017-09-15T00:09:00.109Z,14.16
2017-09-15T00:11:31.545Z,14.11
2017-09-15T00:14:05.804Z,14.06
2017-09-15T00:16:39.566Z,13.93
2017-09-15T00:19:17.560Z,13.87
2017-09-15T00:21:50.956Z,13.81
2017-09-15T00:24:25.556Z,13.74
2017-09-15T00:26:57.193Z,13.66
2017-09-15T00:29:31.508Z,13.60
2017-09-15T00:32:09.765Z,13.57
2017-09-15T00:34:43.351Z,13.53
2017-09-15T00:37:16.385Z,13.51
2017-09-15T00:39:51.761Z,13.48
2017-09-15T00:42:25.483Z,13.44
2017-09-15T00:45:00.131Z,13.41
2017-09-15T00:47:34.345Z,13.36
2017-09-15T00:50:07.132Z,13.32
2017-09-15T00:52:40.966Z,13.28
2017-09-15T00:55:15.679Z,13.25
2017-09-15T00:57:47.025Z,13.24
2017-09-15T01:00:23.721Z,13.21
2017-09-15T01:02:54.986Z,13.23
2017-09-15T01:05:26.744Z,13.26
2017-09-15T01:07:58.028Z,13.33
2017-09-15T01:10:29.367Z,13.38
2017-09-15T01:13:01.431Z,13.41
2017-09-15T01:15:32.709Z,13.40
2017-09-15T01:18:04.973Z,13.41
2017-09-15T01:20:36.404Z,13.41
2017-09-15T01:23:11.007Z,13.39
2017-09-15T01:25:42.414Z,13.34
2017-09-15T01:28:18.398Z,13.42
2017-09-15T01:30:51.498Z,13.45
2017-09-15T01:33:23.627Z,13.43
2017-09-15T01:35:54.849Z,13.50
2017-09-15T01:38:27.247Z,13.49
2017-09-15T01:40:58.773Z,13.45
2017-09-15T01:43:30.533Z,13.47
2017-09-15T01:46:04.067Z,13.55
2017-09-15T01:48:35.630Z,13.64
2017-09-15T01:51:06.710Z,13.72
2017-09-15T01:53:37.899Z,13.79
2017-09-15T01:56:09.317Z,13.81
2017-09-15T01:58:41.352Z,13.80
2017-09-15T02:01:15.274Z,13.86
2017-09-15T02:03:46.673Z,13.91
2017-09-15T02:06:18.130Z,13.96
2017-09-15T02:08:49.540Z,13.83
2017-09-15T02:11:21.967Z,13.77
2017-09-15T02:13:53.443Z,13.71
2017-09-15T02:16:26.342Z,13.66
2017-09-15T02:18:57.721Z,13.71
2017-09-15T02:21:28.778Z,13.68
2017-09-15T02:23:59.839Z,13.69
2017-09-15T02:26:31.323Z,13.70
2017-09-15T02:29:03.979Z,13.73
2017-09-15T02:31:35.199Z,13.70
2017-09-15T02:34:10.038Z,13.70
2017-09-15T02:36:41.595Z,13.69
2017-09-15T02:39:14.244Z,13.69
2017-09-15T02:41:46.309Z,13.68
2017-09-15T02:44:20.360Z,13.64
2017-09-15T02:46:51.936Z,13.61
2017-09-15T02:49:24.565Z,13.52
2017-09-15T02:51:56.045Z,13.46
2017-09-15T02:54:27.922Z,13.43
2017-09-15T02:57:15.835Z,13.37
2017-09-15T02:59:49.780Z,13.27
2017-09-15T03:02:21.270Z,13.22
2017-09-15T03:04:52.886Z,13.23
2017-09-15T03:07:24.871Z,13.26
2017-09-15T03:09:56.333Z,13.27
2017-09-15T03:12:27.636Z,13.22
2017-09-15T03:14:59.030Z,13.14
2017-09-15T03:17:30.810Z,13.06
2017-09-15T03:20:03.922Z,13.00
2017-09-15T03:22:35.443Z,12.99
2017-09-15T03:25:06.617Z,12.95
2017-09-15T03:27:37.671Z,12.90
2017-09-15T03:30:11.418Z,12.85
2017-09-15T03:32:42.953Z,12.85
2017-09-15T03:35:16.669Z,12.83
2017-09-15T03:37:48.946Z,12.75
2017-09-15T03:40:22.580Z,12.76
2017-09-15T03:42:53.769Z,12.81
2017-09-15T03:45:27.986Z,12.79
2017-09-15T03:47:59.532Z,12.79
2017-09-15T03:50:31.967Z,12.67
2017-09-15T03:53:04.710Z,12.61
2017-09-15T03:55:36.146Z,12.54
2017-09-15T03:58:07.971Z,12.45
2017-09-15T04:00:39.110Z,12.40
2017-09-15T04:03:10.943Z,12.40
2017-09-15T04:05:42.122Z,12.36
2017-09-15T04:08:16.369Z,12.31
2017-09-15T04:13:54.215Z,12.30
2017-09-15T04:16:27.199Z,12.24
2017-09-15T04:18:58.841Z,12.27
2017-09-15T04:21:31.269Z,12.29
2017-09-15T04:24:06.259Z,12.30
2017-09-15T04:26:38.748Z,12.30
2017-09-15T04:29:12.216Z,12.35
2017-09-15T04:31:46.792Z,12.40
2017-09-15T04:34:20.285Z,12.43
2017-09-15T04:36:51.711Z,12.48
2017-09-15T04:39:24.022Z,12.47
2017-09-15T04:41:55.175Z,12.51
2017-09-15T05:02:45.062Z,12.58
2017-09-15T05:05:18.349Z,12.56
2017-09-15T05:07:52.029Z,12.58
2017-09-15T05:10:24.346Z,12.61
2017-09-15T05:12:55.630Z,12.69
2017-09-15T05:15:28.880Z,12.70
2017-09-15T05:18:00.158Z,12.72
2017-09-15T05:20:31.286Z,12.74
2017-09-15T05:23:02.592Z,12.79
2017-09-15T05:25:33.746Z,12.82
2017-09-15T05:28:05.792Z,12.86
2017-09-15T05:30:36.913Z,12.92
2017-09-15T05:33:08.130Z,12.95
2017-09-15T05:35:39.549Z,12.96
2017-09-15T05:38:10.633Z,12.92
2017-09-15T05:40:41.805Z,12.97
2017-09-15T05:43:17.761Z,13.07
2017-09-15T05:45:48.931Z,13.17
2017-09-15T05:48:20.266Z,13.21
2017-09-15T05:50:51.339Z,13.21
2017-09-15T05:53:23.182Z,13.26
2017-09-15T05:55:54.558Z,13.30
2017-09-15T05:58:26.559Z,13.31
2017-09-15T06:00:57.998Z,13.27
2017-09-15T06:03:30.240Z,13.26
2017-09-15T06:06:01.882Z,13.31
2017-09-15T06:08:33.317Z,13.33
2017-09-15T06:11:05.666Z,13.31
2017-09-15T06:13:37.095Z,13.34
2017-09-15T06:16:08.300Z,13.48
2017-09-15T06:18:39.386Z,13.57
2017-09-15T06:21:10.800Z,13.61
2017-09-15T06:23:41.893Z,13.68
2017-09-15T06:26:13.411Z,13.84
2017-09-15T06:28:44.830Z,13.96
2017-09-15T06:31:15.929Z,14.15
2017-09-15T06:33:47.131Z,14.32
2017-09-15T06:36:18.324Z,14.56
2017-09-15T06:38:50.763Z,14.69
2017-09-15T06:41:22.680Z,14.90
2017-09-15T06:43:53.941Z,14.91
2017-09-15T06:46:27.710Z,15.12
2017-09-15T06:49:00.690Z,15.33
2017-09-15T06:51:31.888Z,15.24
2017-09-15T06:54:05.011Z,15.31
2017-09-15T06:56:36.835Z,15.42
2017-09-15T06:59:08.236Z,15.47
2017-09-15T07:01:39.417Z,15.40
2017-09-15T07:04:10.646Z,15.41
2017-09-15T07:06:42.290Z,15.23
2017-09-15T07:09:13.786Z,15.35
2017-09-15T07:11:44.892Z,15.44
2017-09-15T07:14:16.568Z,15.63
2017-09-15T07:16:48.055Z,15.92
2017-09-15T07:19:19.218Z,15.92
2017-09-15T07:21:50.338Z,15.99
2017-09-15T07:24:21.542Z,15.97
2017-09-15T07:26:53.157Z,15.97
2017-09-15T07:29:24.797Z,16.02
2017-09-15T07:31:56.149Z,15.97
2017-09-15T07:34:30.027Z,15.91
2017-09-15T07:37:13.409Z,15.92
2017-09-15T07:39:44.909Z,15.86
2017-09-15T07:42:16.061Z,15.76
2017-09-15T07:44:50.074Z,15.89
2017-09-15T07:47:21.545Z,16.33
2017-09-15T07:49:54.070Z,16.78
2017-09-15T07:52:28.121Z,16.93
2017-09-15T07:54:59.277Z,17.07
2017-09-15T07:57:30.998Z,17.05
2017-09-15T08:00:03.644Z,17.00
2017-09-15T08:02:34.738Z,16.93
2017-09-15T08:05:06.111Z,16.91
2017-09-15T08:07:37.403Z,16.89
2017-09-15T08:10:08.703Z,17.02
2017-09-15T08:12:41.749Z,17.16
2017-09-15T08:15:12.948Z,17.25
2017-09-15T08:17:44.247Z,17.11
2017-09-15T08:20:15.726Z,17.04
2017-09-15T08:22:46.854Z,17.26
2017-09-15T08:25:18.426Z,17.66
2017-09-15T08:30:55.177Z,17.70
2017-09-15T08:33:26.473Z,17.88
2017-09-15T08:35:59.342Z,18.01
2017-09-15T08:38:30.495Z,17.32
2017-09-15T08:41:03.902Z,17.64
2017-09-15T08:43:45.417Z,18.17
2017-09-15T08:46:18.684Z,18.63
2017-09-15T08:48:50.167Z,18.78
2017-09-15T08:51:23.158Z,18.99
2017-09-15T08:53:54.487Z,19.21
2017-09-15T08:59:31.380Z,18.48
2017-09-15T09:04:58.369Z,18.81
2017-09-15T09:10:35.528Z,19.35
2017-09-15T09:16:07.341Z,19.85
2017-09-15T09:29:20.640Z,20.82
2017-09-15T12:35:49.378Z,20.39
2017-09-15T15:46:53.603Z,30.69
2017-09-15T15:49:28.644Z,32.94
2017-09-15T15:55:31.062Z,32.43
2017-09-15T15:58:13.651Z,30.00
2017-09-15T16:01:12.739Z,27.19
2017-09-15T16:05:30.770Z,25.03
2017-09-15T16:14:35.934Z,25.61
2017-09-15T16:17:18.167Z,26.74
2017-09-15T16:19:58.892Z,27.65
2017-09-15T16:22:32.766Z,28.55
2017-09-15T16:25:17.580Z,28.59
2017-09-15T16:27:57.758Z,26.66
2017-09-15T16:30:38.788Z,25.57
2017-09-15T16:33:18.319Z,24.25
2017-09-15T18:27:08.728Z,15.17
2017-09-15T18:32:40.896Z,15.05
2017-09-15T18:38:29.008Z,15.02
2017-09-15T18:47:14.994Z,14.87
2017-09-15T18:49:58.229Z,14.80
2017-09-15T18:52:38.707Z,14.77
2017-09-15T18:55:27.978Z,14.73
2017-09-15T19:04:21.519Z,14.63
2017-09-15T19:07:02.141Z,14.56
2017-09-15T19:09:47.677Z,14.53
2017-09-15T19:12:22.558Z,14.50
2017-09-15T19:14:59.961Z,14.38
2017-09-15T19:20:39.118Z,14.34
2017-09-15T19:23:37.086Z,14.32
2017-09-15T19:26:30.948Z,14.32
2017-09-15T19:29:07.698Z,14.26
2017-09-15T19:37:37.513Z,14.32
2017-09-15T19:40:15.065Z,14.31
2017-09-15T19:42:47.818Z,14.27
2017-09-15T19:45:22.473Z,14.26
2017-09-15T19:57:11.103Z,14.24
2017-09-15T19:59:49.552Z,14.19
2017-09-15T20:19:05.806Z,14.20
2017-09-15T20:25:34.630Z,14.25
2017-09-15T20:28:07.779Z,14.21
2017-09-15T20:37:04.470Z,14.19
2017-09-15T20:39:39.898Z,13.96
2017-09-15T20:42:14.980Z,13.84
2017-09-15T20:44:58.650Z,13.76
2017-09-15T20:47:30.484Z,13.68
2017-09-15T20:50:04.069Z,13.61
2017-09-15T20:52:35.923Z,13.57
2017-09-15T20:55:07.527Z,13.53
2017-09-15T20:57:45.092Z,13.46
2017-09-15T21:00:16.562Z,13.43
2017-09-15T21:02:53.491Z,13.36
2017-09-15T21:05:25.814Z,13.28
2017-09-15T21:08:00.233Z,13.22
2017-09-15T21:10:31.819Z,13.19
2017-09-15T21:13:05.703Z,13.16
2017-09-15T21:15:37.637Z,13.13
2017-09-15T21:18:11.369Z,13.10
2017-09-15T21:20:49.205Z,13.09
2017-09-15T21:23:22.773Z,13.03
2017-09-15T21:25:54.141Z,12.98
2017-09-15T21:31:28.361Z,12.95
2017-09-15T21:33:59.738Z,12.93
2017-09-15T21:36:32.295Z,12.93
2017-09-15T21:39:04.228Z,12.91
2017-09-15T21:41:35.693Z,12.87
2017-09-15T21:44:07.335Z,12.76
2017-09-15T21:46:55.272Z,12.75
2017-09-15T21:49:42.860Z,12.73
2017-09-15T21:52:15.331Z,12.71
2017-09-15T21:54:46.779Z,12.70
2017-09-15T22:00:17.196Z,12.63
2017-09-15T22:09:25.314Z,12.46
2017-09-15T22:11:56.665Z,12.45
2017-09-15T22:17:24.005Z,12.39
2017-09-15T22:19:55.366Z,12.35
2017-09-15T22:22:28.738Z,12.37
2017-09-15T22:25:00.762Z,12.29
2017-09-15T22:27:33.347Z,12.28
2017-09-15T22:30:06.608Z,12.17
2017-09-15T22:32:44.027Z,12.16
2017-09-15T22:38:34.211Z,12.19
2017-09-15T22:41:11.334Z,12.18
2017-09-15T22:46:43.778Z,12.16
2017-09-15T22:55:06.973Z,12.05
